sensor_id;sensor_type;location;lat;lon;timestamp;P1;durP1;ratioP1;P2;durP2;ratioP2
30335;SDS011;17142;47.990;7.846;2023-01-19T07:01:19;5.90;;;3.47;;
30335;SDS011;17142;47.990;7.846;2023-01-19T07:06:20;4.15;;;3.38;;
30335;SDS011;17142;47.990;7.846;2023-01-19T07:08:48;7.73;;;4.37;;
30335;SDS011;17142;47.990;7.846;2023-01-19T07:11:14;6.22;;;3.75;;
30335;SDS011;17142;47.990;7.846;2023-01-19T07:13:43;3.90;;;2.90;;
30335;SDS011;17142;47.990;7.846;2023-01-19T07:16:11;5.78;;;3.38;;
30335;SDS011;17142;47.990;7.846;2023-01-19T07:18:37;5.97;;;4.05;;
30335;SDS011;17142;47.990;7.846;2023-01-19T07:21:04;5.07;;;4.00;;
30335;SDS011;17142;47.990;7.846;2023-01-19T07:23:30;4.60;;;3.58;;
30335;SDS011;17142;47.990;7.846;2023-01-19T07:25:56;3.90;;;3.50;;
30335;SDS011;17142;47.990;7.846;2023-01-19T07:28:25;6.25;;;4.15;;
30335;SDS011;17142;47.990;7.846;2023-01-19T07:30:55;5.93;;;3.55;;
30335;SDS011;17142;47.990;7.846;2023-01-19T07:33:24;8.33;;;3.73;;
30335;SDS011;17142;47.990;7.846;2023-01-19T07:35:50;3.30;;;2.75;;
30335;SDS011;17142;47.990;7.846;2023-01-19T07:38:16;6.72;;;3.22;;
30335;SDS011;17142;47.990;7.846;2023-01-19T07:40:45;4.20;;;3.20;;
30335;SDS011;17142;47.990;7.846;2023-01-19T07:43:13;6.22;;;3.28;;
30335;SDS011;17142;47.990;7.846;2023-01-19T07:45:39;3.13;;;2.70;;
30335;SDS011;17142;47.990;7.846;2023-01-19T07:48:05;4.27;;;3.70;;
30335;SDS011;17142;47.990;7.846;2023-01-19T07:50:33;3.40;;;2.80;;
30335;SDS011;17142;47.990;7.846;2023-01-19T07:53:04;5.10;;;3.03;;
30335;SDS011;17142;47.990;7.846;2023-01-19T07:55:33;5.80;;;3.88;;
30335;SDS011;17142;47.990;7.846;2023-01-19T07:58:01;4.53;;;3.42;;
30335;SDS011;17142;47.990;7.846;2023-01-19T08:00:31;3.47;;;2.50;;
30335;SDS011;17142;47.990;7.846;2023-01-19T08:02:59;4.60;;;2.90;;
30335;SDS011;17142;47.990;7.846;2023-01-19T08:05:26;5.68;;;3.50;;
30335;SDS011;17142;47.990;7.846;2023-01-19T08:07:55;6.72;;;4.32;;
30335;SDS011;17142;47.990;7.846;2023-01-19T08:10:24;6.93;;;3.60;;
30335;SDS011;17142;47.990;7.846;2023-01-19T08:12:53;4.22;;;3.25;;
30335;SDS011;17142;47.990;7.846;2023-01-19T08:15:20;5.10;;;3.03;;
30335;SDS011;17142;47.990;7.846;2023-01-19T08:17:55;3.28;;;2.90;;
30335;SDS011;17142;47.990;7.846;2023-01-19T08:20:25;4.25;;;3.10;;
30335;SDS011;17142;47.990;7.846;2023-01-19T08:22:51;5.97;;;3.65;;
30335;SDS011;17142;47.990;7.846;2023-01-19T08:28:02;4.13;;;3.13;;
30335;SDS011;17142;47.990;7.846;2023-01-19T08:30:33;3.80;;;3.47;;
30335;SDS011;17142;47.990;7.846;2023-01-19T08:33:02;4.33;;;3.20;;
30335;SDS011;17142;47.990;7.846;2023-01-19T08:35:32;4.43;;;3.00;;
30335;SDS011;17142;47.990;7.846;2023-01-19T08:38:01;5.07;;;3.60;;
30335;SDS011;17142;47.990;7.846;2023-01-19T08:40:28;7.15;;;3.17;;
30335;SDS011;17142;47.990;7.846;2023-01-19T08:43:02;4.90;;;2.93;;
30335;SDS011;17142;47.990;7.846;2023-01-19T08:45:35;5.67;;;3.70;;
30335;SDS011;17142;47.990;7.846;2023-01-19T08:48:04;5.30;;;3.63;;
30335;SDS011;17142;47.990;7.846;2023-01-19T08:50:31;6.88;;;2.90;;
30335;SDS011;17142;47.990;7.846;2023-01-19T08:52:58;3.93;;;3.10;;
30335;SDS011;17142;47.990;7.846;2023-01-19T08:55:25;4.78;;;3.78;;
30335;SDS011;17142;47.990;7.846;2023-01-19T08:57:55;7.90;;;4.35;;
30335;SDS011;17142;47.990;7.846;2023-01-19T09:00:22;4.97;;;3.90;;
30335;SDS011;17142;47.990;7.846;2023-01-19T09:02:51;4.63;;;3.60;;
30335;SDS011;17142;47.990;7.846;2023-01-19T09:05:22;6.33;;;4.23;;
30335;SDS011;17142;47.990;7.846;2023-01-19T09:07:48;3.55;;;2.47;;
30335;SDS011;17142;47.990;7.846;2023-01-19T09:10:15;6.90;;;3.57;;
30335;SDS011;17142;47.990;7.846;2023-01-19T09:12:42;4.43;;;3.63;;
30335;SDS011;17142;47.990;7.846;2023-01-19T09:15:11;11.50;;;3.87;;
30335;SDS011;17142;47.990;7.846;2023-01-19T09:17:38;3.40;;;3.07;;
30335;SDS011;17142;47.990;7.846;2023-01-19T09:20:06;15.73;;;4.73;;
30335;SDS011;17142;47.990;7.846;2023-01-19T09:22:35;4.70;;;4.20;;
30335;SDS011;17142;47.990;7.846;2023-01-19T09:25:01;13.73;;;4.17;;
30335;SDS011;17142;47.990;7.846;2023-01-19T09:27:26;6.20;;;4.00;;
30335;SDS011;17142;47.990;7.846;2023-01-19T09:29:54;9.32;;;4.50;;
30335;SDS011;17142;47.990;7.846;2023-01-19T09:32:22;4.20;;;3.53;;
30335;SDS011;17142;47.990;7.846;2023-01-19T09:34:48;6.43;;;3.90;;
30335;SDS011;17142;47.990;7.846;2023-01-19T09:37:13;9.20;;;5.00;;
30335;SDS011;17142;47.990;7.846;2023-01-19T09:39:41;6.60;;;4.30;;
30335;SDS011;17142;47.990;7.846;2023-01-19T09:45:06;5.23;;;4.33;;
30335;SDS011;17142;47.990;7.846;2023-01-19T09:47:55;5.13;;;3.90;;
30335;SDS011;17142;47.990;7.846;2023-01-19T09:50:30;11.43;;;5.00;;
30335;SDS011;17142;47.990;7.846;2023-01-19T09:53:03;14.40;;;4.80;;
30335;SDS011;17142;47.990;7.846;2023-01-19T09:55:38;8.13;;;3.90;;
30335;SDS011;17142;47.990;7.846;2023-01-19T09:58:11;7.27;;;4.67;;
30335;SDS011;17142;47.990;7.846;2023-01-19T10:00:41;8.40;;;4.00;;
30335;SDS011;17142;47.990;7.846;2023-01-19T10:03:13;6.90;;;4.10;;
30335;SDS011;17142;47.990;7.846;2023-01-19T10:05:46;4.30;;;3.40;;
30335;SDS011;17142;47.990;7.846;2023-01-19T10:10:44;5.00;;;3.70;;
30335;SDS011;17142;47.990;7.846;2023-01-19T10:13:35;14.13;;;3.77;;
30335;SDS011;17142;47.990;7.846;2023-01-19T10:21:25;6.60;;;3.90;;
30335;SDS011;17142;47.990;7.846;2023-01-19T10:26:49;5.43;;;3.43;;
30335;SDS011;17142;47.990;7.846;2023-01-19T10:32:14;3.50;;;3.03;;
30335;SDS011;17142;47.990;7.846;2023-01-19T10:34:45;3.90;;;2.80;;
30335;SDS011;17142;47.990;7.846;2023-01-19T10:39:56;4.70;;;3.83;;
30335;SDS011;17142;47.990;7.846;2023-01-19T10:42:27;6.00;;;3.43;;
30335;SDS011;17142;47.990;7.846;2023-01-19T10:44:54;4.93;;;2.60;;
30335;SDS011;17142;47.990;7.846;2023-01-19T10:47:20;3.37;;;3.00;;
30335;SDS011;17142;47.990;7.846;2023-01-19T10:49:53;4.90;;;3.80;;
30335;SDS011;17142;47.990;7.846;2023-01-19T10:52:32;4.50;;;3.20;;
30335;SDS011;17142;47.990;7.846;2023-01-19T10:55:01;4.40;;;3.13;;
30335;SDS011;17142;47.990;7.846;2023-01-19T10:57:29;6.63;;;4.17;;
30335;SDS011;17142;47.990;7.846;2023-01-19T11:00:00;8.20;;;3.93;;
30335;SDS011;17142;47.990;7.846;2023-01-19T11:02:32;5.37;;;3.17;;
30335;SDS011;17142;47.990;7.846;2023-01-19T11:04:59;6.23;;;3.80;;
30335;SDS011;17142;47.990;7.846;2023-01-19T11:07:32;9.50;;;4.57;;
30335;SDS011;17142;47.990;7.846;2023-01-19T11:12:43;7.57;;;4.60;;
30335;SDS011;17142;47.990;7.846;2023-01-19T11:15:22;11.57;;;4.63;;
30335;SDS011;17142;47.990;7.846;2023-01-19T11:17:48;7.13;;;4.37;;
30335;SDS011;17142;47.990;7.846;2023-01-19T11:20:19;5.50;;;4.20;;
30335;SDS011;17142;47.990;7.846;2023-01-19T11:25:57;7.77;;;3.33;;
30335;SDS011;17142;47.990;7.846;2023-01-19T11:31:01;5.60;;;2.37;;
30335;SDS011;17142;47.990;7.846;2023-01-19T11:33:52;5.60;;;2.97;;
30335;SDS011;17142;47.990;7.846;2023-01-19T11:36:25;5.23;;;3.13;;
30335;SDS011;17142;47.990;7.846;2023-01-19T11:38:59;6.80;;;4.30;;
30335;SDS011;17142;47.990;7.846;2023-01-19T11:41:44;11.27;;;3.07;;
30335;SDS011;17142;47.990;7.846;2023-01-19T11:46:45;3.47;;;2.80;;
30335;SDS011;17142;47.990;7.846;2023-01-19T11:49:19;2.60;;;2.37;;
30335;SDS011;17142;47.990;7.846;2023-01-19T11:52:01;4.10;;;2.70;;
30335;SDS011;17142;47.990;7.846;2023-01-19T11:54:40;5.77;;;3.70;;
30335;SDS011;17142;47.990;7.846;2023-01-19T11:57:12;4.47;;;3.07;;
30335;SDS011;17142;47.990;7.846;2023-01-19T11:59:44;3.90;;;3.23;;
30335;SDS011;17142;47.990;7.846;2023-01-19T12:02:16;3.60;;;3.30;;
30335;SDS011;17142;47.990;7.846;2023-01-19T12:04:50;4.00;;;3.63;;
30335;SDS011;17142;47.990;7.846;2023-01-19T12:07:21;2.73;;;2.53;;
30335;SDS011;17142;47.990;7.846;2023-01-19T12:10:02;4.23;;;2.50;;
30335;SDS011;17142;47.990;7.846;2023-01-19T12:12:41;5.73;;;2.70;;
30335;SDS011;17142;47.990;7.846;2023-01-19T12:15:16;4.97;;;2.70;;
30335;SDS011;17142;47.990;7.846;2023-01-19T12:17:50;4.73;;;2.90;;
30335;SDS011;17142;47.990;7.846;2023-01-19T12:20:24;6.60;;;2.87;;
30335;SDS011;17142;47.990;7.846;2023-01-19T12:23:00;3.03;;;2.63;;
30335;SDS011;17142;47.990;7.846;2023-01-19T12:28:29;4.93;;;3.10;;
30335;SDS011;17142;47.990;7.846;2023-01-19T12:31:00;4.30;;;3.63;;
30335;SDS011;17142;47.990;7.846;2023-01-19T12:33:31;3.80;;;2.90;;
30335;SDS011;17142;47.990;7.846;2023-01-19T12:36:03;7.23;;;3.50;;
30335;SDS011;17142;47.990;7.846;2023-01-19T12:38:45;3.97;;;2.90;;
30335;SDS011;17142;47.990;7.846;2023-01-19T12:41:18;7.10;;;3.70;;
30335;SDS011;17142;47.990;7.846;2023-01-19T12:46:34;6.40;;;3.80;;
30335;SDS011;17142;47.990;7.846;2023-01-19T12:51:50;6.70;;;3.90;;
30335;SDS011;17142;47.990;7.846;2023-01-19T12:54:35;6.13;;;4.13;;
30335;SDS011;17142;47.990;7.846;2023-01-19T12:57:07;7.40;;;3.33;;
30335;SDS011;17142;47.990;7.846;2023-01-19T12:59:42;4.90;;;3.83;;
30335;SDS011;17142;47.990;7.846;2023-01-19T13:05:12;6.63;;;3.37;;
30335;SDS011;17142;47.990;7.846;2023-01-19T13:26:20;4.70;;;3.53;;
30335;SDS011;17142;47.990;7.846;2023-01-19T13:28:54;6.47;;;4.00;;
30335;SDS011;17142;47.990;7.846;2023-01-19T13:31:34;4.10;;;3.20;;
30335;SDS011;17142;47.990;7.846;2023-01-19T13:34:08;3.80;;;3.47;;
30335;SDS011;17142;47.990;7.846;2023-01-19T13:36:49;5.03;;;3.63;;
30335;SDS011;17142;47.990;7.846;2023-01-19T13:41:47;5.97;;;4.50;;
30335;SDS011;17142;47.990;7.846;2023-01-19T13:44:19;4.20;;;3.53;;
30335;SDS011;17142;47.990;7.846;2023-01-19T13:46:51;8.07;;;3.57;;
30335;SDS011;17142;47.990;7.846;2023-01-19T13:49:30;5.80;;;4.37;;
30335;SDS011;17142;47.990;7.846;2023-01-19T13:54:46;4.80;;;3.00;;
30335;SDS011;17142;47.990;7.846;2023-01-19T13:57:26;4.63;;;2.90;;
30335;SDS011;17142;47.990;7.846;2023-01-19T14:02:32;3.73;;;3.00;;
30335;SDS011;17142;47.990;7.846;2023-01-19T14:04:57;2.90;;;2.60;;
30335;SDS011;17142;47.990;7.846;2023-01-19T14:07:46;4.70;;;3.50;;
30335;SDS011;17142;47.990;7.846;2023-01-19T14:10:13;4.63;;;3.60;;
30335;SDS011;17142;47.990;7.846;2023-01-19T14:12:42;7.00;;;4.03;;
30335;SDS011;17142;47.990;7.846;2023-01-19T14:15:10;4.07;;;3.10;;
30335;SDS011;17142;47.990;7.846;2023-01-19T14:17:41;3.33;;;3.10;;
30335;SDS011;17142;47.990;7.846;2023-01-19T14:20:28;7.30;;;4.00;;
30335;SDS011;17142;47.990;7.846;2023-01-19T14:23:00;6.17;;;4.17;;
30335;SDS011;17142;47.990;7.846;2023-01-19T14:31:16;5.57;;;3.73;;
30335;SDS011;17142;47.990;7.846;2023-01-19T14:33:46;5.27;;;3.40;;
30335;SDS011;17142;47.990;7.846;2023-01-19T14:38:51;4.40;;;2.57;;
30335;SDS011;17142;47.990;7.846;2023-01-19T14:42:02;3.30;;;2.97;;
30335;SDS011;17142;47.990;7.846;2023-01-19T14:44:34;5.17;;;2.80;;
30335;SDS011;17142;47.990;7.846;2023-01-19T14:46:59;3.60;;;2.70;;
30335;SDS011;17142;47.990;7.846;2023-01-19T14:49:33;4.67;;;3.07;;
30335;SDS011;17142;47.990;7.846;2023-01-19T14:52:04;3.40;;;3.10;;
30335;SDS011;17142;47.990;7.846;2023-01-19T14:54:52;3.40;;;3.10;;
30335;SDS011;17142;47.990;7.846;2023-01-19T14:57:20;5.00;;;2.93;;
30335;SDS011;17142;47.990;7.846;2023-01-19T14:59:46;5.07;;;3.53;;
30335;SDS011;17142;47.990;7.846;2023-01-19T15:02:13;3.83;;;3.37;;
30335;SDS011;17142;47.990;7.846;2023-01-19T15:04:39;4.13;;;2.90;;
30335;SDS011;17142;47.990;7.846;2023-01-19T15:07:10;4.73;;;3.13;;
30335;SDS011;17142;47.990;7.846;2023-01-19T15:09:42;3.40;;;3.10;;
30335;SDS011;17142;47.990;7.846;2023-01-19T15:12:09;4.30;;;2.97;;
30335;SDS011;17142;47.990;7.846;2023-01-19T15:14:39;3.83;;;2.67;;
30335;SDS011;17142;47.990;7.846;2023-01-19T15:17:05;4.87;;;2.70;;
30335;SDS011;17142;47.990;7.846;2023-01-19T15:19:33;3.17;;;2.67;;
30335;SDS011;17142;47.990;7.846;2023-01-19T15:21:58;4.40;;;2.90;;
30335;SDS011;17142;47.990;7.846;2023-01-19T15:24:24;6.10;;;3.27;;
30335;SDS011;17142;47.990;7.846;2023-01-19T15:26:52;7.43;;;4.60;;
30335;SDS011;17142;47.990;7.846;2023-01-19T15:29:24;4.67;;;2.87;;
30335;SDS011;17142;47.990;7.846;2023-01-19T15:31:52;3.47;;;3.17;;
30335;SDS011;17142;47.990;7.846;2023-01-19T15:34:18;2.87;;;2.57;;
30335;SDS011;17142;47.990;7.846;2023-01-19T15:36:48;3.00;;;2.70;;
30335;SDS011;17142;47.990;7.846;2023-01-19T15:39:13;7.37;;;3.77;;
30335;SDS011;17142;47.990;7.846;2023-01-19T15:41:39;3.27;;;2.60;;
30335;SDS011;17142;47.990;7.846;2023-01-19T15:44:05;4.13;;;2.80;;
30335;SDS011;17142;47.990;7.846;2023-01-19T15:46:32;3.83;;;3.53;;
30335;SDS011;17142;47.990;7.846;2023-01-19T15:48:58;5.57;;;2.90;;
30335;SDS011;17142;47.990;7.846;2023-01-19T15:51:28;2.63;;;2.40;;
30335;SDS011;17142;47.990;7.846;2023-01-19T15:53:54;4.30;;;3.10;;
30335;SDS011;17142;47.990;7.846;2023-01-19T15:56:24;3.30;;;2.63;;
30335;SDS011;17142;47.990;7.846;2023-01-19T15:58:52;3.73;;;2.40;;
30335;SDS011;17142;47.990;7.846;2023-01-19T16:01:19;4.23;;;3.07;;
30335;SDS011;17142;47.990;7.846;2023-01-19T16:03:57;4.17;;;3.40;;
30335;SDS011;17142;47.990;7.846;2023-01-19T16:06:25;3.87;;;3.50;;
30335;SDS011;17142;47.990;7.846;2023-01-19T16:08:50;6.30;;;3.50;;
30335;SDS011;17142;47.990;7.846;2023-01-19T16:11:23;4.10;;;3.70;;
30335;SDS011;17142;47.990;7.846;2023-01-19T16:13:49;5.90;;;4.20;;
30335;SDS011;17142;47.990;7.846;2023-01-19T16:16:17;5.57;;;3.33;;
30335;SDS011;17142;47.990;7.846;2023-01-19T16:18:45;5.07;;;2.90;;
30335;SDS011;17142;47.990;7.846;2023-01-19T16:21:13;4.97;;;3.43;;
30335;SDS011;17142;47.990;7.846;2023-01-19T16:23:41;8.17;;;3.50;;
30335;SDS011;17142;47.990;7.846;2023-01-19T16:26:19;3.00;;;2.63;;
30335;SDS011;17142;47.990;7.846;2023-01-19T16:28:50;4.33;;;2.93;;
30335;SDS011;17142;47.990;7.846;2023-01-19T16:31:19;5.23;;;3.10;;
30335;SDS011;17142;47.990;7.846;2023-01-19T16:33:44;6.50;;;3.30;;
30335;SDS011;17142;47.990;7.846;2023-01-19T16:36:43;3.63;;;2.60;;
30335;SDS011;17142;47.990;7.846;2023-01-19T16:39:09;6.47;;;4.00;;
30335;SDS011;17142;47.990;7.846;2023-01-19T16:41:37;4.30;;;3.60;;
30335;SDS011;17142;47.990;7.846;2023-01-19T16:44:02;5.17;;;3.17;;
30335;SDS011;17142;47.990;7.846;2023-01-19T16:46:32;5.53;;;2.57;;
30335;SDS011;17142;47.990;7.846;2023-01-19T16:49:02;4.20;;;2.80;;
30335;SDS011;17142;47.990;7.846;2023-01-19T16:51:30;4.40;;;2.90;;
30335;SDS011;17142;47.990;7.846;2023-01-19T16:53:56;3.33;;;2.77;;
30335;SDS011;17142;47.990;7.846;2023-01-19T16:56:24;5.50;;;3.60;;
30335;SDS011;17142;47.990;7.846;2023-01-19T16:58:53;5.17;;;3.40;;
30335;SDS011;17142;47.990;7.846;2023-01-19T17:01:19;4.40;;;3.87;;
30335;SDS011;17142;47.990;7.846;2023-01-19T17:03:46;5.27;;;3.97;;
30335;SDS011;17142;47.990;7.846;2023-01-19T17:06:13;5.83;;;3.90;;
30335;SDS011;17142;47.990;7.846;2023-01-19T17:08:42;6.47;;;4.20;;
30335;SDS011;17142;47.990;7.846;2023-01-19T17:11:14;4.80;;;3.40;;
30335;SDS011;17142;47.990;7.846;2023-01-19T17:13:57;6.23;;;4.10;;
30335;SDS011;17142;47.990;7.846;2023-01-19T17:16:24;5.13;;;4.17;;
30335;SDS011;17142;47.990;7.846;2023-01-19T17:18:54;6.80;;;4.93;;
30335;SDS011;17142;47.990;7.846;2023-01-19T17:21:21;5.00;;;4.47;;
30335;SDS011;17142;47.990;7.846;2023-01-19T17:23:48;8.60;;;4.57;;
30335;SDS011;17142;47.990;7.846;2023-01-19T17:26:20;4.97;;;3.17;;
30335;SDS011;17142;47.990;7.846;2023-01-19T17:28:47;5.43;;;3.50;;
30335;SDS011;17142;47.990;7.846;2023-01-19T17:31:19;6.03;;;4.53;;
30335;SDS011;17142;47.990;7.846;2023-01-19T17:33:48;5.47;;;3.73;;
30335;SDS011;17142;47.990;7.846;2023-01-19T17:36:21;6.90;;;4.30;;
30335;SDS011;17142;47.990;7.846;2023-01-19T17:38:49;7.77;;;4.00;;
30335;SDS011;17142;47.990;7.846;2023-01-19T17:41:16;6.23;;;4.47;;
30335;SDS011;17142;47.990;7.846;2023-01-19T17:43:44;7.30;;;4.30;;
30335;SDS011;17142;47.990;7.846;2023-01-19T17:46:11;5.40;;;3.97;;
30335;SDS011;17142;47.990;7.846;2023-01-19T17:48:37;7.53;;;4.90;;
30335;SDS011;17142;47.990;7.846;2023-01-19T17:51:06;8.93;;;4.40;;
30335;SDS011;17142;47.990;7.846;2023-01-19T17:53:35;4.37;;;3.97;;
30335;SDS011;17142;47.990;7.846;2023-01-19T17:56:06;7.13;;;4.17;;
30335;SDS011;17142;47.990;7.846;2023-01-19T17:58:33;8.87;;;4.77;;
30335;SDS011;17142;47.990;7.846;2023-01-19T18:03:38;5.70;;;3.37;;
30335;SDS011;17142;47.990;7.846;2023-01-19T18:06:07;6.40;;;4.10;;
30335;SDS011;17142;47.990;7.846;2023-01-19T18:08:33;6.87;;;3.50;;
30335;SDS011;17142;47.990;7.846;2023-01-19T18:11:02;5.63;;;3.80;;
30335;SDS011;17142;47.990;7.846;2023-01-19T18:13:28;4.07;;;3.63;;
30335;SDS011;17142;47.990;7.846;2023-01-19T18:15:57;5.70;;;4.30;;
30335;SDS011;17142;47.990;7.846;2023-01-19T18:18:27;5.63;;;4.40;;
30335;SDS011;17142;47.990;7.846;2023-01-19T18:20:56;8.37;;;5.33;;
30335;SDS011;17142;47.990;7.846;2023-01-19T18:23:26;6.17;;;4.73;;
30335;SDS011;17142;47.990;7.846;2023-01-19T18:25:59;9.20;;;5.83;;
30335;SDS011;17142;47.990;7.846;2023-01-19T18:28:25;5.07;;;4.57;;
30335;SDS011;17142;47.990;7.846;2023-01-19T18:30:54;9.73;;;4.80;;
30335;SDS011;17142;47.990;7.846;2023-01-19T18:33:20;8.07;;;5.30;;
30335;SDS011;17142;47.990;7.846;2023-01-19T18:35:48;6.90;;;5.00;;
30335;SDS011;17142;47.990;7.846;2023-01-19T18:38:15;6.10;;;4.90;;
30335;SDS011;17142;47.990;7.846;2023-01-19T18:40:47;9.33;;;5.60;;
30335;SDS011;17142;47.990;7.846;2023-01-19T18:43:13;8.10;;;4.80;;
30335;SDS011;17142;47.990;7.846;2023-01-19T18:45:41;7.57;;;6.13;;
30335;SDS011;17142;47.990;7.846;2023-01-19T18:48:11;5.63;;;5.10;;
30335;SDS011;17142;47.990;7.846;2023-01-19T18:50:37;6.43;;;5.00;;
30335;SDS011;17142;47.990;7.846;2023-01-19T18:53:02;5.97;;;5.37;;
30335;SDS011;17142;47.990;7.846;2023-01-19T18:55:28;6.07;;;5.20;;
30335;SDS011;17142;47.990;7.846;2023-01-19T18:57:54;24.53;;;13.90;;
30335;SDS011;17142;47.990;7.846;2023-01-19T19:00:22;16.17;;;9.43;;
30335;SDS011;17142;47.990;7.846;2023-01-19T19:02:48;10.87;;;6.43;;
30335;SDS011;17142;47.990;7.846;2023-01-19T19:05:14;8.80;;;5.20;;
30335;SDS011;17142;47.990;7.846;2023-01-19T19:07:42;8.10;;;4.77;;
30335;SDS011;17142;47.990;7.846;2023-01-19T19:10:10;8.20;;;5.07;;
30335;SDS011;17142;47.990;7.846;2023-01-19T19:12:38;8.30;;;6.73;;
30335;SDS011;17142;47.990;7.846;2023-01-19T19:15:06;7.20;;;5.53;;
30335;SDS011;17142;47.990;7.846;2023-01-19T19:17:37;8.50;;;6.23;;
30335;SDS011;17142;47.990;7.846;2023-01-19T19:20:03;5.97;;;5.30;;
30335;SDS011;17142;47.990;7.846;2023-01-19T19:22:31;10.43;;;5.17;;
30335;SDS011;17142;47.990;7.846;2023-01-19T19:24:59;8.77;;;6.13;;
30335;SDS011;17142;47.990;7.846;2023-01-19T19:27:25;8.43;;;6.20;;
30335;SDS011;17142;47.990;7.846;2023-01-19T19:29:51;8.20;;;6.43;;
30335;SDS011;17142;47.990;7.846;2023-01-19T19:32:19;8.60;;;5.27;;
30335;SDS011;17142;47.990;7.846;2023-01-19T19:34:48;9.83;;;5.80;;
30335;SDS011;17142;47.990;7.846;2023-01-19T19:37:22;7.17;;;5.70;;
30335;SDS011;17142;47.990;7.846;2023-01-19T19:39:47;10.23;;;6.60;;
30335;SDS011;17142;47.990;7.846;2023-01-19T19:42:16;8.70;;;6.50;;
30335;SDS011;17142;47.990;7.846;2023-01-19T19:44:41;9.00;;;5.80;;
30335;SDS011;17142;47.990;7.846;2023-01-19T19:47:07;8.07;;;6.03;;
30335;SDS011;17142;47.990;7.846;2023-01-19T19:49:32;7.83;;;5.90;;
30335;SDS011;17142;47.990;7.846;2023-01-19T19:51:58;11.50;;;6.47;;
30335;SDS011;17142;47.990;7.846;2023-01-19T19:54:24;9.00;;;6.23;;
30335;SDS011;17142;47.990;7.846;2023-01-19T19:56:49;7.57;;;6.63;;
30335;SDS011;17142;47.990;7.846;2023-01-19T19:59:17;8.00;;;6.07;;
30335;SDS011;17142;47.990;7.846;2023-01-19T20:01:45;7.40;;;6.47;;
30335;SDS011;17142;47.990;7.846;2023-01-19T20:04:14;8.53;;;5.20;;
30335;SDS011;17142;47.990;7.846;2023-01-19T20:06:43;6.67;;;5.90;;
30335;SDS011;17142;47.990;7.846;2023-01-19T20:09:10;8.70;;;7.10;;
30335;SDS011;17142;47.990;7.846;2023-01-19T20:11:38;7.83;;;7.03;;
30335;SDS011;17142;47.990;7.846;2023-01-19T20:14:05;9.13;;;7.10;;
30335;SDS011;17142;47.990;7.846;2023-01-19T20:16:31;8.03;;;5.40;;
30335;SDS011;17142;47.990;7.846;2023-01-19T20:18:57;10.17;;;6.13;;
30335;SDS011;17142;47.990;7.846;2023-01-19T20:21:25;10.63;;;7.07;;
30335;SDS011;17142;47.990;7.846;2023-01-19T20:23:55;8.93;;;5.47;;
30335;SDS011;17142;47.990;7.846;2023-01-19T20:26:28;6.10;;;5.50;;
30335;SDS011;17142;47.990;7.846;2023-01-19T20:28:56;8.70;;;5.77;;
30335;SDS011;17142;47.990;7.846;2023-01-19T20:31:25;8.73;;;6.20;;
30335;SDS011;17142;47.990;7.846;2023-01-19T20:33:54;5.30;;;4.70;;
30335;SDS011;17142;47.990;7.846;2023-01-19T20:36:23;7.33;;;5.30;;
30335;SDS011;17142;47.990;7.846;2023-01-19T20:38:50;10.50;;;5.93;;
30335;SDS011;17142;47.990;7.846;2023-01-19T20:41:16;9.00;;;6.40;;
30335;SDS011;17142;47.990;7.846;2023-01-19T20:43:43;12.30;;;7.77;;
30335;SDS011;17142;47.990;7.846;2023-01-19T20:46:09;11.73;;;7.23;;
30335;SDS011;17142;47.990;7.846;2023-01-19T20:48:37;8.60;;;5.97;;
30335;SDS011;17142;47.990;7.846;2023-01-19T20:51:11;5.90;;;5.03;;
30335;SDS011;17142;47.990;7.846;2023-01-19T20:53:37;8.37;;;4.80;;
30335;SDS011;17142;47.990;7.846;2023-01-19T20:56:10;6.43;;;5.10;;
30335;SDS011;17142;47.990;7.846;2023-01-19T20:58:37;5.60;;;4.67;;
30335;SDS011;17142;47.990;7.846;2023-01-19T21:01:38;8.73;;;4.80;;
30335;SDS011;17142;47.990;7.846;2023-01-19T21:03:57;6.27;;;4.83;;
30335;SDS011;17142;47.990;7.846;2023-01-19T21:06:22;5.00;;;4.60;;
30335;SDS011;17142;47.990;7.846;2023-01-19T21:08:51;5.17;;;4.63;;
30335;SDS011;17142;47.990;7.846;2023-01-19T21:11:17;7.67;;;4.83;;
30335;SDS011;17142;47.990;7.846;2023-01-19T21:13:47;7.67;;;4.77;;
30335;SDS011;17142;47.990;7.846;2023-01-19T21:16:15;5.87;;;5.03;;
30335;SDS011;17142;47.990;7.846;2023-01-19T21:18:41;7.23;;;4.83;;
30335;SDS011;17142;47.990;7.846;2023-01-19T21:21:07;6.07;;;5.07;;
30335;SDS011;17142;47.990;7.846;2023-01-19T21:23:33;5.00;;;4.30;;
30335;SDS011;17142;47.990;7.846;2023-01-19T21:25:59;6.70;;;5.20;;
30335;SDS011;17142;47.990;7.846;2023-01-19T21:28:27;6.67;;;4.90;;
30335;SDS011;17142;47.990;7.846;2023-01-19T21:30:55;6.17;;;5.40;;
30335;SDS011;17142;47.990;7.846;2023-01-19T21:33:20;6.00;;;4.70;;
30335;SDS011;17142;47.990;7.846;2023-01-19T21:38:30;7.27;;;4.40;;
30335;SDS011;17142;47.990;7.846;2023-01-19T21:40:56;7.40;;;6.13;;
30335;SDS011;17142;47.990;7.846;2023-01-19T21:43:23;8.43;;;6.10;;
30335;SDS011;17142;47.990;7.846;2023-01-19T21:45:50;9.47;;;5.77;;
30335;SDS011;17142;47.990;7.846;2023-01-19T21:48:16;6.77;;;5.30;;
30335;SDS011;17142;47.990;7.846;2023-01-19T21:50:44;5.00;;;4.60;;
30335;SDS011;17142;47.990;7.846;2023-01-19T21:53:19;6.57;;;4.60;;
30335;SDS011;17142;47.990;7.846;2023-01-19T21:55:45;6.80;;;5.23;;
30335;SDS011;17142;47.990;7.846;2023-01-19T21:58:10;5.83;;;5.20;;
30335;SDS011;17142;47.990;7.846;2023-01-19T22:00:36;6.63;;;5.30;;
30335;SDS011;17142;47.990;7.846;2023-01-19T22:03:04;6.90;;;5.20;;
30335;SDS011;17142;47.990;7.846;2023-01-19T22:05:33;6.67;;;5.90;;
30335;SDS011;17142;47.990;7.846;2023-01-19T22:07:59;6.63;;;5.50;;
30335;SDS011;17142;47.990;7.846;2023-01-19T22:10:25;6.23;;;5.63;;
30335;SDS011;17142;47.990;7.846;2023-01-19T22:12:51;5.73;;;5.23;;
30335;SDS011;17142;47.990;7.846;2023-01-19T22:15:16;6.17;;;4.97;;
30335;SDS011;17142;47.990;7.846;2023-01-19T22:17:42;9.40;;;6.40;;
30335;SDS011;17142;47.990;7.846;2023-01-19T22:20:08;9.00;;;5.40;;
30335;SDS011;17142;47.990;7.846;2023-01-19T22:22:34;8.17;;;5.17;;
30335;SDS011;17142;47.990;7.846;2023-01-19T22:24:59;7.03;;;4.90;;
30335;SDS011;17142;47.990;7.846;2023-01-19T22:27:27;5.73;;;5.13;;
30335;SDS011;17142;47.990;7.846;2023-01-19T22:29:56;6.73;;;5.80;;
30335;SDS011;17142;47.990;7.846;2023-01-19T22:32:23;7.07;;;5.10;;
30335;SDS011;17142;47.990;7.846;2023-01-19T22:34:48;5.40;;;4.90;;
30335;SDS011;17142;47.990;7.846;2023-01-19T22:37:14;9.63;;;5.20;;
30335;SDS011;17142;47.990;7.846;2023-01-19T22:39:39;6.60;;;5.07;;
30335;SDS011;17142;47.990;7.846;2023-01-19T22:42:06;5.37;;;4.70;;
30335;SDS011;17142;47.990;7.846;2023-01-19T22:44:32;6.60;;;4.87;;
30335;SDS011;17142;47.990;7.846;2023-01-19T22:46:57;8.50;;;5.63;;
30335;SDS011;17142;47.990;7.846;2023-01-19T22:49:25;6.17;;;4.33;;
30335;SDS011;17142;47.990;7.846;2023-01-19T22:51:51;8.07;;;4.93;;
30335;SDS011;17142;47.990;7.846;2023-01-19T22:54:18;7.00;;;4.53;;
30335;SDS011;17142;47.990;7.846;2023-01-19T22:56:49;6.03;;;4.53;;
30335;SDS011;17142;47.990;7.846;2023-01-19T22:59:14;4.90;;;4.43;;
30335;SDS011;17142;47.990;7.846;2023-01-19T23:01:42;4.80;;;4.30;;
30335;SDS011;17142;47.990;7.846;2023-01-19T23:04:11;6.13;;;3.80;;
30335;SDS011;17142;47.990;7.846;2023-01-19T23:06:38;5.57;;;4.57;;
30335;SDS011;17142;47.990;7.846;2023-01-19T23:09:05;5.90;;;4.73;;
30335;SDS011;17142;47.990;7.846;2023-01-19T23:11:36;5.07;;;4.13;;
30335;SDS011;17142;47.990;7.846;2023-01-19T23:14:04;6.83;;;3.80;;
30335;SDS011;17142;47.990;7.846;2023-01-19T23:16:31;6.43;;;4.47;;
30335;SDS011;17142;47.990;7.846;2023-01-19T23:18:58;4.70;;;3.67;;
30335;SDS011;17142;47.990;7.846;2023-01-19T23:21:24;5.00;;;4.50;;
30335;SDS011;17142;47.990;7.846;2023-01-19T23:24:01;5.13;;;3.93;;
30335;SDS011;17142;47.990;7.846;2023-01-19T23:26:28;5.03;;;4.43;;
30335;SDS011;17142;47.990;7.846;2023-01-19T23:28:59;5.20;;;3.90;;